Time;durP1;ratioP1;P1;durP2;ratioP2;P2;SDS_P1;SDS_P2;PMS_P1;PMS_P2;Temp;Humidity;BMP_temperature;BMP_pressure;BME280_temperature;BME280_humidity;BME280_pressure;Samples;Min_cycle;Max_cycle;Signal;HPM_P1;HPM_P2
2021/10/29 00:00:40;;;;;;;37.20;21.97;;;7.60;99.90;;;;;;5050144;28;20419;-55
2021/10/29 00:03:07;;;;;;;42.47;23.00;;;7.50;99.90;;;;;;5049376;28;20387;-55
2021/10/29 00:05:34;;;;;;;43.13;24.42;;;7.40;99.90;;;;;;5048861;28;20472;-55
2021/10/29 00:08:01;;;;;;;36.33;21.80;;;7.40;99.90;;;;;;5049163;28;20385;-55
2021/10/29 00:10:29;;;;;;;40.97;23.67;;;7.40;99.90;;;;;;5049584;28;20501;-55
2021/10/29 00:12:56;;;;;;;37.85;23.10;;;7.40;99.90;;;;;;5049644;28;20899;-57
2021/10/29 00:15:22;;;;;;;42.17;22.55;;;7.40;99.90;;;;;;5049652;28;20386;-55
2021/10/29 00:17:49;;;;;;;39.15;22.90;;;7.30;99.90;;;;;;5049692;28;20459;-55
2021/10/29 00:20:15;;;;;;;45.83;23.90;;;7.20;99.90;;;;;;5048600;28;20442;-56
2021/10/29 00:22:41;;;;;;;46.23;25.73;;;7.20;99.90;;;;;;5034861;28;20462;-55
2021/10/29 00:25:07;;;;;;;47.47;25.42;;;7.30;99.90;;;;;;5046794;28;20409;-55
2021/10/29 00:27:33;;;;;;;47.75;24.90;;;7.30;99.90;;;;;;5049563;28;20393;-55
2021/10/29 00:29:59;;;;;;;49.63;25.90;;;7.40;99.90;;;;;;5048926;28;20725;-55
2021/10/29 00:32:27;;;;;;;46.25;26.05;;;7.40;99.90;;;;;;5049401;28;20378;-55
2021/10/29 00:34:53;;;;;;;44.42;25.17;;;7.40;99.90;;;;;;5049672;28;20389;-55
2021/10/29 00:37:18;;;;;;;46.20;24.63;;;7.30;99.90;;;;;;5048841;28;20429;-55
2021/10/29 00:39:45;;;;;;;47.85;25.42;;;7.30;99.90;;;;;;5049305;28;20381;-55
2021/10/29 00:42:10;;;;;;;49.90;26.30;;;7.20;99.90;;;;;;5041155;28;20383;-55
2021/10/29 00:44:36;;;;;;;54.17;27.07;;;7.20;99.90;;;;;;5036847;28;20876;-55
2021/10/29 00:47:02;;;;;;;52.00;27.65;;;7.20;99.90;;;;;;5048887;28;20385;-55
2021/10/29 00:49:28;;;;;;;51.67;27.45;;;7.20;99.90;;;;;;5049402;28;20386;-55
2021/10/29 00:51:54;;;;;;;47.33;25.80;;;7.20;99.90;;;;;;5049455;28;20385;-55
2021/10/29 00:54:20;;;;;;;51.73;27.10;;;7.30;99.90;;;;;;5048826;28;20423;-55
2021/10/29 00:56:47;;;;;;;51.40;27.50;;;7.20;99.90;;;;;;5048843;28;20939;-55
2021/10/29 00:59:14;;;;;;;49.75;26.90;;;7.20;99.90;;;;;;5048182;28;20985;-55
2021/10/29 01:01:40;;;;;;;57.70;28.38;;;7.30;99.90;;;;;;5049267;28;20378;-55
2021/10/29 01:04:06;;;;;;;51.10;26.80;;;7.30;99.90;;;;;;5030761;28;20389;-53
2021/10/29 01:06:33;;;;;;;48.67;26.52;;;7.30;99.90;;;;;;5049423;28;20381;-53
2021/10/29 01:08:59;;;;;;;51.28;27.90;;;7.40;99.90;;;;;;5048620;28;20389;-58
2021/10/29 01:11:26;;;;;;;50.67;25.50;;;7.40;99.90;;;;;;5049334;28;20451;-55
2021/10/29 01:13:52;;;;;;;47.10;25.48;;;7.30;99.90;;;;;;5049199;28;20430;-55
2021/10/29 01:16:20;;;;;;;49.03;26.30;;;7.30;99.90;;;;;;5048516;28;20428;-55
2021/10/29 01:18:46;;;;;;;47.83;24.90;;;7.30;99.90;;;;;;5049351;28;20399;-55
2021/10/29 01:21:12;;;;;;;51.60;26.30;;;7.20;99.90;;;;;;5048265;28;20480;-53
2021/10/29 01:23:38;;;;;;;43.03;24.98;;;7.20;99.90;;;;;;5048715;28;20921;-55
2021/10/29 01:26:16;;;;;;;47.55;25.30;;;7.10;99.90;;;;;;5048044;28;20389;-55
2021/10/29 01:28:42;;;;;;;43.80;24.83;;;7.10;99.90;;;;;;5048934;28;20396;-55
2021/10/29 01:31:08;;;;;;;49.30;23.92;;;7.10;99.90;;;;;;5046960;28;20389;-55
2021/10/29 01:33:34;;;;;;;44.87;23.77;;;7.10;99.90;;;;;;5048722;28;20741;-55
2021/10/29 01:36:00;;;;;;;40.38;22.17;;;7.00;99.90;;;;;;5048027;28;20498;-56
2021/10/29 01:38:35;;;;;;;43.00;22.10;;;7.00;99.90;;;;;;5049244;28;20408;-56
2021/10/29 01:41:02;;;;;;;39.90;23.33;;;7.00;99.90;;;;;;5052217;28;20424;-55
2021/10/29 01:43:27;;;;;;;40.53;22.23;;;7.00;99.90;;;;;;5051286;28;20412;-55
2021/10/29 01:45:54;;;;;;;43.38;23.08;;;6.90;99.90;;;;;;5052681;28;20389;-55
2021/10/29 01:48:21;;;;;;;40.03;22.25;;;6.70;99.90;;;;;;5052057;28;20409;-55
2021/10/29 01:50:47;;;;;;;45.83;22.80;;;6.70;99.90;;;;;;5052518;28;20375;-55
2021/10/29 01:53:13;;;;;;;42.15;22.42;;;6.60;99.90;;;;;;5084231;28;20397;-55
2021/10/29 01:55:39;;;;;;;40.37;22.17;;;6.60;99.90;;;;;;5052509;28;20405;-55
2021/10/29 01:58:05;;;;;;;43.83;22.40;;;6.50;99.90;;;;;;5051382;28;20400;-56
2021/10/29 02:00:30;;;;;;;38.15;22.38;;;6.50;99.90;;;;;;5052272;28;20427;-55
2021/10/29 02:02:56;;;;;;;41.97;21.83;;;6.40;99.90;;;;;;5051914;28;20384;-57
2021/10/29 02:05:22;;;;;;;38.80;21.35;;;6.50;99.90;;;;;;5051792;28;20377;-54
2021/10/29 02:07:48;;;;;;;43.78;23.00;;;6.40;99.90;;;;;;5052109;28;20734;-54
2021/10/29 02:10:13;;;;;;;42.40;22.10;;;6.40;99.90;;;;;;5083411;28;20901;-54
2021/10/29 02:12:39;;;;;;;40.20;22.02;;;6.30;99.90;;;;;;5052170;28;20385;-54
2021/10/29 02:15:06;;;;;;;41.15;21.88;;;6.20;99.90;;;;;;5051428;28;20385;-54
2021/10/29 02:17:32;;;;;;;41.97;23.70;;;6.10;99.90;;;;;;5052000;28;20481;-54
2021/10/29 02:19:58;;;;;;;47.80;23.30;;;6.00;99.90;;;;;;5051801;28;20425;-56
2021/10/29 02:22:24;;;;;;;41.08;22.35;;;5.90;99.90;;;;;;5051977;28;20871;-55
2021/10/29 02:24:49;;;;;;;39.60;22.23;;;5.90;99.90;;;;;;5051944;28;20492;-55
2021/10/29 02:27:15;;;;;;;41.90;22.20;;;6.00;99.90;;;;;;5051153;28;20385;-55
2021/10/29 02:29:41;;;;;;;41.40;21.23;;;5.90;99.90;;;;;;5084192;28;20849;-55
2021/10/29 02:32:07;;;;;;;36.70;21.83;;;5.90;99.90;;;;;;5044579;28;20379;-55
2021/10/29 02:34:33;;;;;;;38.60;21.17;;;5.80;99.90;;;;;;5065305;28;20389;-55
2021/10/29 02:36:58;;;;;;;38.27;20.50;;;5.80;99.90;;;;;;5051380;28;20444;-57
2021/10/29 02:39:24;;;;;;;38.25;20.80;;;5.90;99.90;;;;;;5046016;28;20886;-55
2021/10/29 02:41:50;;;;;;;40.10;20.57;;;5.90;99.90;;;;;;5031464;28;20383;-55
2021/10/29 02:44:15;;;;;;;38.22;21.25;;;5.90;99.90;;;;;;5030837;28;20384;-55
2021/10/29 02:46:41;;;;;;;42.38;22.25;;;6.00;99.90;;;;;;5031552;28;20383;-55
2021/10/29 02:49:07;;;;;;;47.70;24.20;;;6.10;99.90;;;;;;5029472;28;20383;-55
2021/10/29 02:51:33;;;;;;;46.35;24.58;;;6.10;99.90;;;;;;5031087;28;20397;-55
2021/10/29 02:54:00;;;;;;;36.65;20.50;;;6.10;99.90;;;;;;5031125;28;20383;-57
2021/10/29 02:56:26;;;;;;;42.67;22.63;;;6.10;99.90;;;;;;5031381;28;20529;-55
2021/10/29 02:58:51;;;;;;;47.30;23.60;;;5.90;99.90;;;;;;5030575;28;20406;-55
2021/10/29 03:01:17;;;;;;;50.90;24.42;;;6.00;99.90;;;;;;5031167;28;21086;-55
2021/10/29 03:03:43;;;;;;;43.93;22.43;;;5.90;99.90;;;;;;5031698;28;20730;-55
2021/10/29 03:06:08;;;;;;;44.83;23.67;;;5.80;99.90;;;;;;5030810;28;20431;-55
2021/10/29 03:08:34;;;;;;;46.15;24.35;;;5.70;99.90;;;;;;5031373;28;20425;-55
2021/10/29 03:11:00;;;;;;;46.40;23.10;;;5.70;99.90;;;;;;5030492;28;20415;-57
2021/10/29 03:13:26;;;;;;;45.80;24.42;;;6.60;99.90;;;;;;5039332;28;20399;-55
2021/10/29 03:15:52;;;;;;;48.10;25.27;;;5.70;99.90;;;;;;5072729;28;20923;-55
2021/10/29 03:18:18;;;;;;;47.33;26.15;;;5.80;99.90;;;;;;5050080;28;20413;-55
2021/10/29 03:20:45;;;;;;;52.97;26.30;;;5.80;99.90;;;;;;5029880;28;20431;-55
2021/10/29 03:23:13;;;;;;;46.72;24.00;;;5.90;99.90;;;;;;5030213;28;20398;-55
2021/10/29 03:25:40;;;;;;;50.75;26.38;;;5.90;99.90;;;;;;5030642;28;20933;-56
2021/10/29 03:28:06;;;;;;;50.05;25.30;;;5.90;99.90;;;;;;5030280;28;20414;-56
2021/10/29 03:30:32;;;;;;;50.33;25.77;;;5.80;99.90;;;;;;5031385;28;20857;-55
2021/10/29 03:32:57;;;;;;;48.90;24.08;;;5.80;99.90;;;;;;5030701;28;20470;-57
2021/10/29 03:35:25;;;;;;;46.08;24.50;;;5.70;99.90;;;;;;5030707;28;20413;-55
2021/10/29 03:40:56;;;;;;;44.97;24.88;;;5.50;99.90;;;;;;5030932;28;20801;-55
2021/10/29 03:48:19;;;;;;;43.22;24.08;;;5.50;99.90;;;;;;5029949;28;20550;-55
2021/10/29 03:51:08;;;;;;;53.10;25.63;;;5.50;99.90;;;;;;5030673;28;20434;-55
2021/10/29 03:56:23;;;;;;;51.05;24.83;;;5.70;99.90;;;;;;5029870;28;20453;-55
2021/10/29 03:58:53;;;;;;;47.05;24.65;;;5.80;99.90;;;;;;5030590;28;20415;-55
2021/10/29 04:01:20;;;;;;;45.63;24.45;;;5.70;99.90;;;;;;5029249;28;20409;-55
2021/10/29 04:03:46;;;;;;;45.72;23.80;;;5.70;99.90;;;;;;5030239;28;20413;-55
2021/10/29 04:06:11;;;;;;;44.60;24.10;;;5.80;99.90;;;;;;5029329;28;20395;-55
2021/10/29 04:08:37;;;;;;;42.77;22.87;;;5.90;99.90;;;;;;5030217;28;20485;-55
2021/10/29 04:11:04;;;;;;;44.22;22.52;;;5.90;99.90;;;;;;5029304;28;20505;-55
2021/10/29 04:13:41;;;;;;;48.57;24.10;;;5.80;99.90;;;;;;5030203;28;20406;-55
2021/10/29 04:16:07;;;;;;;44.10;23.95;;;5.80;99.90;;;;;;5044788;28;20822;-55
2021/10/29 04:18:33;;;;;;;41.22;22.08;;;5.80;99.90;;;;;;5040334;28;20382;-55
2021/10/29 04:21:00;;;;;;;42.85;22.30;;;5.70;99.90;;;;;;5038487;28;20474;-57
2021/10/29 04:23:26;;;;;;;38.80;21.20;;;5.60;99.90;;;;;;5043837;28;20385;-55
2021/10/29 04:25:53;;;;;;;42.92;22.10;;;5.60;99.90;;;;;;5038358;28;20483;-55
2021/10/29 04:28:18;;;;;;;38.45;21.13;;;5.50;99.90;;;;;;5029579;28;20591;-55
2021/10/29 04:30:45;;;;;;;39.43;21.23;;;5.50;99.90;;;;;;5049793;28;20889;-55
2021/10/29 04:33:12;;;;;;;49.95;23.08;;;5.30;99.90;;;;;;5048937;28;20393;-54
2021/10/29 04:35:41;;;;;;;47.83;24.10;;;5.30;99.90;;;;;;5048829;28;20389;-55
2021/10/29 04:38:12;;;;;;;50.60;25.23;;;5.30;99.90;;;;;;5047180;28;20439;-55
2021/10/29 04:40:40;;;;;;;52.37;25.30;;;5.40;99.90;;;;;;5049622;28;20432;-55
2021/10/29 04:43:06;;;;;;;50.33;25.85;;;5.50;99.90;;;;;;5048756;28;20956;-55
2021/10/29 04:45:32;;;;;;;46.45;23.95;;;5.50;99.90;;;;;;5049254;28;20381;-55
2021/10/29 04:48:00;;;;;;;48.70;23.95;;;5.50;99.90;;;;;;5049405;28;20386;-55
2021/10/29 04:50:26;;;;;;;40.43;23.27;;;5.60;99.90;;;;;;5048950;28;20397;-55
2021/10/29 04:52:52;;;;;;;42.60;23.20;;;5.40;99.90;;;;;;5046469;28;20392;-56
2021/10/29 04:55:18;;;;;;;45.03;24.30;;;5.40;99.90;;;;;;5046958;28;20389;-56
2021/10/29 04:57:44;;;;;;;43.25;23.40;;;5.30;99.90;;;;;;5043989;28;20503;-55
2021/10/29 05:00:10;;;;;;;45.58;24.88;;;5.20;99.90;;;;;;5046591;28;20416;-55
2021/10/29 05:02:36;;;;;;;47.67;25.00;;;5.10;99.90;;;;;;5062181;28;20857;-56
2021/10/29 05:05:04;;;;;;;46.47;24.60;;;5.20;99.90;;;;;;5048826;28;20384;-57
2021/10/29 05:07:31;;;;;;;47.67;24.55;;;5.10;99.90;;;;;;5044331;28;20415;-56
2021/10/29 05:09:57;;;;;;;47.90;23.67;;;5.10;99.90;;;;;;5043442;28;20421;-56
2021/10/29 05:12:23;;;;;;;43.30;23.50;;;5.10;99.90;;;;;;5040844;28;21324;-55
2021/10/29 05:14:49;;;;;;;46.70;24.57;;;5.20;99.90;;;;;;5041370;28;20413;-56
2021/10/29 05:17:14;;;;;;;47.03;23.52;;;5.10;99.90;;;;;;5029123;28;20473;-55
2021/10/29 05:19:40;;;;;;;43.55;23.60;;;5.10;99.90;;;;;;5039065;28;20443;-56
2021/10/29 05:22:06;;;;;;;44.93;23.70;;;5.10;99.90;;;;;;5047099;28;20389;-56
2021/10/29 05:24:32;;;;;;;44.55;23.60;;;5.10;99.90;;;;;;5048543;28;20423;-56
2021/10/29 05:26:58;;;;;;;43.03;22.90;;;5.10;99.90;;;;;;5048531;28;20394;-55
2021/10/29 05:29:23;;;;;;;44.28;23.90;;;5.10;99.90;;;;;;5029766;28;20389;-56
2021/10/29 05:31:51;;;;;;;37.97;21.23;;;6.40;99.90;;;;;;5048279;28;20385;-56
2021/10/29 05:34:17;;;;;;;37.27;22.10;;;5.20;99.90;;;;;;5046395;28;20532;-55
2021/10/29 05:36:43;;;;;;;36.17;19.60;;;5.20;99.90;;;;;;5047969;28;20462;-56
2021/10/29 05:39:09;;;;;;;36.42;21.98;;;5.10;99.90;;;;;;5047886;28;20931;-56
2021/10/29 05:41:36;;;;;;;38.30;21.33;;;5.10;99.90;;;;;;5047485;28;20895;-55
2021/10/29 05:44:02;;;;;;;45.08;23.23;;;5.10;99.90;;;;;;5045742;28;20492;-57
2021/10/29 05:46:31;;;;;;;40.05;22.08;;;5.20;99.90;;;;;;5046731;28;20450;-57
2021/10/29 05:48:59;;;;;;;36.17;21.07;;;6.40;99.90;;;;;;5035182;28;20948;-55
2021/10/29 05:51:26;;;;;;;38.30;21.10;;;5.30;99.90;;;;;;5032853;28;20399;-56
2021/10/29 05:54:06;;;;;;;39.92;21.17;;;5.20;99.90;;;;;;5046102;28;20742;-56
2021/10/29 05:56:32;;;;;;;40.05;22.48;;;5.10;99.90;;;;;;5043921;28;20956;-56
2021/10/29 05:59:03;;;;;;;41.95;22.70;;;6.30;99.90;;;;;;5028275;28;20379;-56
2021/10/29 06:01:29;;;;;;;41.72;22.60;;;5.20;99.90;;;;;;5028340;28;20402;-56
2021/10/29 06:03:55;;;;;;;50.67;22.52;;;5.30;99.90;;;;;;5028519;28;20407;-56
2021/10/29 06:06:20;;;;;;;42.83;22.30;;;5.40;99.90;;;;;;5042040;28;20626;-55
2021/10/29 06:08:46;;;;;;;47.30;24.47;;;5.50;99.90;;;;;;5048473;28;20497;-55
2021/10/29 06:11:12;;;;;;;37.17;21.70;;;6.10;99.90;;;;;;5045281;28;20432;-56
2021/10/29 06:13:38;;;;;;;42.88;23.02;;;5.60;99.90;;;;;;5036187;28;20481;-55
2021/10/29 06:16:06;;;;;;;55.37;23.43;;;5.50;99.90;;;;;;5027984;28;20415;-57
2021/10/29 06:18:32;;;;;;;59.10;23.30;;;5.60;99.90;;;;;;5028227;28;20476;-56
2021/10/29 06:20:58;;;;;;;42.00;21.60;;;5.60;99.90;;;;;;5042141;28;20432;-56
2021/10/29 06:23:35;;;;;;;47.15;21.70;;;5.60;99.90;;;;;;5045196;28;20832;-55
2021/10/29 06:26:02;;;;;;;38.40;20.60;;;5.60;99.90;;;;;;5036274;28;20408;-57
2021/10/29 06:28:30;;;;;;;40.83;20.83;;;5.70;99.90;;;;;;5041573;28;21305;-57
2021/10/29 06:30:58;;;;;;;41.25;21.65;;;5.60;99.90;;;;;;5047271;28;20484;-56
2021/10/29 06:33:24;;;;;;;40.65;21.35;;;5.70;99.90;;;;;;5051251;28;21022;-56
2021/10/29 06:35:51;;;;;;;42.65;21.38;;;5.70;99.90;;;;;;5051863;28;20409;-56
2021/10/29 06:38:17;;;;;;;42.13;20.20;;;5.70;99.90;;;;;;5050299;28;20403;-56
2021/10/29 06:40:46;;;;;;;41.30;19.92;;;5.80;99.90;;;;;;5047454;28;20804;-56
2021/10/29 06:43:20;;;;;;;41.45;23.13;;;5.90;99.90;;;;;;5037193;28;20861;-56
2021/10/29 07:42:27;;;;;;;16.10;12.20;;;16.50;99.90;;;;;;5038997;28;20480;-57
2021/10/29 07:44:53;;;;;;;15.88;13.40;;;16.50;99.90;;;;;;5046181;28;20411;-57
2021/10/29 07:47:20;;;;;;;18.00;13.25;;;16.20;99.90;;;;;;5047116;28;20398;-56
2021/10/29 07:49:46;;;;;;;17.40;13.25;;;15.30;99.90;;;;;;5046264;28;20503;-56
2021/10/29 07:52:14;;;;;;;17.90;13.07;;;15.00;99.90;;;;;;5050945;28;20822;-56
2021/10/29 07:54:44;;;;;;;18.38;12.77;;;14.90;99.90;;;;;;5045962;28;20390;-57
2021/10/29 07:57:20;;;;;;;17.73;13.20;;;14.40;99.90;;;;;;5047288;28;20427;-57
2021/10/29 07:59:48;;;;;;;17.50;13.68;;;14.50;99.90;;;;;;5046663;28;20900;-56
2021/10/29 08:02:15;;;;;;;20.10;13.15;;;14.70;99.90;;;;;;5043976;28;20397;-57
2021/10/29 08:04:41;;;;;;;17.50;13.20;;;14.70;99.90;;;;;;5045151;28;20775;-56
2021/10/29 08:07:06;;;;;;;16.70;13.13;;;15.10;99.90;;;;;;5048098;28;20396;-57
2021/10/29 08:09:32;;;;;;;18.45;14.23;;;15.90;99.90;;;;;;5048689;28;20407;-57
2021/10/29 08:11:58;;;;;;;18.20;12.33;;;16.80;99.90;;;;;;5044273;28;20417;-57
2021/10/29 08:14:24;;;;;;;18.77;14.60;;;17.30;99.90;;;;;;5047735;28;20405;-56
2021/10/29 08:16:50;;;;;;;20.95;17.38;;;18.10;99.90;;;;;;5049881;28;20788;-56
2021/10/29 08:19:28;;;;;;;19.07;15.27;;;18.00;99.00;;;;;;5044761;28;20416;-56
2021/10/29 08:21:53;;;;;;;18.95;16.10;;;17.80;99.90;;;;;;5045480;28;20448;-58
2021/10/29 08:24:19;;;;;;;17.70;15.80;;;17.80;99.90;;;;;;5041786;28;20804;-56
2021/10/29 08:26:46;;;;;;;18.48;16.58;;;17.70;99.90;;;;;;5039681;28;20410;-55
2021/10/29 08:29:12;;;;;;;19.20;17.05;;;18.00;99.50;;;;;;5042641;28;20409;-56
2021/10/29 08:31:37;;;;;;;21.13;17.97;;;18.10;99.10;;;;;;5041825;28;20401;-55
2021/10/29 08:34:03;;;;;;;21.58;18.30;;;18.20;99.10;;;;;;5042011;28;20397;-58
2021/10/29 08:36:29;;;;;;;19.75;17.30;;;17.70;99.00;;;;;;5040910;28;20861;-56
2021/10/29 08:38:56;;;;;;;21.08;17.08;;;17.30;99.60;;;;;;5039415;28;20486;-55
2021/10/29 08:41:22;;;;;;;19.35;16.65;;;16.80;99.90;;;;;;5047481;28;20486;-55
2021/10/29 08:43:48;;;;;;;20.35;15.75;;;16.40;99.90;;;;;;5049791;28;20439;-56
2021/10/29 08:46:15;;;;;;;20.10;15.47;;;16.50;99.90;;;;;;5048556;28;20381;-56
2021/10/29 08:48:42;;;;;;;20.95;16.00;;;16.50;99.90;;;;;;5047769;28;20381;-56
2021/10/29 08:51:08;;;;;;;20.90;15.98;;;16.10;99.90;;;;;;5043912;28;20397;-56
2021/10/29 08:53:34;;;;;;;20.55;15.27;;;15.50;99.90;;;;;;5047530;28;20796;-56
2021/10/29 08:56:04;;;;;;;22.70;15.03;;;15.00;99.90;;;;;;5049143;28;20495;-57
2021/10/29 08:58:32;;;;;;;26.75;15.57;;;14.60;99.90;;;;;;5048874;28;20392;-56
2021/10/29 09:01:04;;;;;;;22.58;14.65;;;14.00;99.90;;;;;;5045833;28;20423;-57
2021/10/29 09:03:49;;;;;;;21.98;14.57;;;13.70;99.90;;;;;;5046312;28;20917;-56
2021/10/29 09:06:35;;;;;;;19.23;14.20;;;14.30;99.90;;;;;;5048104;28;20452;-57
2021/10/29 09:17:48;;;;;;;22.95;15.10;;;16.60;99.90;;;;;;5047565;28;20554;-58
2021/10/29 09:34:11;;;;;;;23.90;15.57;;;15.80;99.90;;;;;;5043960;28;20420;-57
2021/10/29 09:36:43;;;;;;;20.43;14.47;;;15.80;99.90;;;;;;5044572;28;20425;-57
2021/10/29 09:39:19;;;;;;;23.67;15.52;;;15.90;99.90;;;;;;5047001;28;20401;-57
2021/10/29 09:41:46;;;;;;;22.27;15.32;;;15.90;99.90;;;;;;5039137;28;20966;-56
2021/10/29 09:44:15;;;;;;;20.75;14.77;;;16.00;99.90;;;;;;5043170;28;20401;-57
2021/10/29 09:46:54;;;;;;;21.10;15.07;;;16.00;99.90;;;;;;5046336;28;20769;-57
2021/10/29 09:49:29;;;;;;;21.70;14.70;;;16.40;99.90;;;;;;5045943;28;20400;-57
2021/10/29 09:54:49;;;;;;;21.40;15.90;;;17.00;99.90;;;;;;5058560;28;20376;-57
2021/10/29 09:57:16;;;;;;;22.50;15.70;;;17.40;99.90;;;;;;5056254;28;20488;-55
2021/10/29 09:59:42;;;;;;;26.15;15.18;;;17.90;99.90;;;;;;5045490;28;20411;-58
2021/10/29 10:02:18;;;;;;;20.38;16.30;;;18.70;99.90;;;;;;5047978;28;20431;-56
2021/10/29 10:04:44;;;;;;;22.08;18.35;;;19.40;99.20;;;;;;5045982;28;20542;-56
2021/10/29 10:07:10;;;;;;;20.40;18.20;;;19.40;98.70;;;;;;5039968;28;20400;-57
2021/10/29 10:09:38;;;;;;;20.75;18.55;;;19.60;98.90;;;;;;5067578;28;20393;-57
2021/10/29 10:12:05;;;;;;;21.02;19.02;;;19.90;98.60;;;;;;5052450;28;20538;-59
2021/10/29 10:14:32;;;;;;;23.15;20.75;;;20.90;96.30;;;;;;5052052;28;20397;-58
2021/10/29 10:16:58;;;;;;;22.77;20.35;;;21.90;94.20;;;;;;5052130;28;20407;-57
2021/10/29 10:19:25;;;;;;;23.40;21.10;;;22.30;92.30;;;;;;5067390;28;20460;-57
2021/10/29 10:21:54;;;;;;;22.05;19.75;;;21.80;92.20;;;;;;5052677;28;20841;-57
2021/10/29 10:24:25;;;;;;;19.50;15.27;;;21.60;92.50;;;;;;5051678;28;20402;-57
2021/10/29 10:43:37;;;;;;;19.23;13.40;;;21.40;92.80;;;;;;5051925;28;20444;-57
2021/10/29 10:48:45;;;;;;;17.23;13.95;;;21.50;92.10;;;;;;5051751;28;20365;-58
2021/10/29 10:52:10;;;;;;;18.65;13.38;;;21.40;92.50;;;;;;5051162;28;20386;-57
2021/10/29 11:05:11;;;;;;;19.88;15.20;;;20.90;93.90;;;;;;5051780;28;20386;-57
2021/10/29 11:10:10;;;;;;;19.63;13.90;;;21.70;92.30;;;;;;5050143;28;20444;-60
2021/10/29 11:12:46;;;;;;;19.13;12.50;;;21.10;92.70;;;;;;5051071;28;20732;-57
2021/10/29 11:15:20;;;;;;;18.13;12.75;;;20.70;93.70;;;;;;5050627;28;20370;-58
2021/10/29 11:17:57;;;;;;;20.40;17.10;;;20.20;94.40;;;;;;5033396;28;20409;-58
2021/10/29 11:23:29;;;;;;;21.13;16.63;;;19.30;95.80;;;;;;5050080;28;20414;-57
2021/10/29 11:26:04;;;;;;;22.25;17.42;;;19.70;95.20;;;;;;5051205;28;20385;-57
2021/10/29 11:28:37;;;;;;;18.73;15.10;;;19.80;95.40;;;;;;5050644;28;20382;-57
2021/10/29 11:31:05;;;;;;;19.30;16.50;;;19.90;95.30;;;;;;5050740;28;20393;-58
2021/10/29 11:33:32;;;;;;;20.65;16.85;;;20.20;96.40;;;;;;5050441;28;20477;-57
2021/10/29 11:36:02;;;;;;;21.20;16.83;;;19.30;96.70;;;;;;5049265;28;20463;-57
2021/10/29 11:38:33;;;;;;;21.93;16.73;;;19.20;97.40;;;;;;5048396;28;20463;-57
2021/10/29 11:41:00;;;;;;;20.58;16.92;;;19.20;97.40;;;;;;5051012;28;20382;-56
2021/10/29 11:43:28;;;;;;;22.20;16.33;;;19.10;97.40;;;;;;5049650;28;20373;-56
2021/10/29 11:45:56;;;;;;;24.67;17.50;;;18.90;98.30;;;;;;5050716;28;20476;-57
2021/10/29 11:48:23;;;;;;;21.58;17.27;;;18.80;98.30;;;;;;5049810;28;20381;-56
2021/10/29 11:51:03;;;;;;;24.35;17.50;;;19.10;98.50;;;;;;5050216;28;20457;-56
2021/10/29 11:53:29;;;;;;;21.10;16.90;;;19.00;98.40;;;;;;5049424;28;20381;-56
2021/10/29 11:56:03;;;;;;;19.90;16.92;;;19.00;97.60;;;;;;5048443;28;20446;-57
2021/10/29 11:58:49;;;;;;;20.92;16.25;;;18.90;97.80;;;;;;5049853;28;20393;-56
2021/10/29 12:01:37;;;;;;;21.15;16.95;;;19.10;96.70;;;;;;5049628;28;20412;-57
2021/10/29 12:09:59;;;;;;;23.15;16.15;;;19.00;96.10;;;;;;5046691;28;20393;-57
2021/10/29 12:12:28;;;;;;;22.13;17.23;;;19.10;97.00;;;;;;5048320;28;20615;-57
2021/10/29 12:14:55;;;;;;;23.63;16.00;;;19.20;96.40;;;;;;5050059;28;20382;-57
2021/10/29 12:17:27;;;;;;;23.35;16.88;;;19.30;96.00;;;;;;5048978;28;20439;-57
2021/10/29 12:20:04;;;;;;;21.02;16.15;;;19.40;96.70;;;;;;5049989;28;20385;-57
2021/10/29 12:22:36;;;;;;;20.75;16.65;;;19.40;96.10;;;;;;5048707;28;20377;-57
2021/10/29 12:25:24;;;;;;;23.23;16.73;;;19.30;96.60;;;;;;5048696;28;20390;-57
2021/10/29 12:58:58;;;;;;;17.83;13.32;;;19.80;95.50;;;;;;5028404;28;20912;-57
2021/10/29 13:04:07;;;;;;;18.83;13.60;;;19.40;94.50;;;;;;5029264;28;20755;-58
2021/10/29 13:06:54;;;;;;;19.90;14.10;;;19.20;95.50;;;;;;5029013;28;20425;-57
2021/10/29 13:09:25;;;;;;;15.90;12.90;;;19.40;95.00;;;;;;5026995;28;20404;-58
2021/10/29 13:11:52;;;;;;;15.38;13.43;;;19.60;93.70;;;;;;5028316;28;20460;-57
2021/10/29 13:17:18;;;;;;;15.70;13.50;;;19.70;94.30;;;;;;5025878;28;20420;-60
2021/10/29 13:51:34;;;;;;;15.50;12.00;;;19.80;92.40;;;;;;5027662;28;20532;-57
2021/10/29 13:54:16;;;;;;;13.95;10.80;;;19.70;92.40;;;;;;5028899;28;20384;-56
2021/10/29 14:29:20;;;;;;;14.38;10.30;;;18.80;93.90;;;;;;5027215;28;20379;-60
2021/10/29 14:32:00;;;;;;;13.20;9.57;;;18.90;93.90;;;;;;5043688;28;20390;-59
2021/10/29 14:34:34;;;;;;;15.02;10.13;;;19.00;92.80;;;;;;5044832;28;20439;-58
2021/10/29 14:42:15;;;;;;;12.50;9.50;;;18.30;94.30;;;;;;5045344;28;20395;-56
2021/10/29 14:44:49;;;;;;;12.52;9.65;;;18.10;94.70;;;;;;5045580;28;20398;-55
2021/10/29 14:47:47;;;;;;;13.93;9.60;;;18.10;94.70;;;;;;5050136;28;20435;-56
2021/10/29 15:17:06;;;;;;;25.02;18.08;;;17.80;95.80;;;;;;5062692;28;20425;-56
2021/10/29 15:30:17;;;;;;;16.47;11.33;;;17.30;98.10;;;;;;5056477;28;20389;-55
2021/10/29 15:32:54;;;;;;;15.68;9.55;;;17.20;98.10;;;;;;5042026;28;20920;-57
2021/10/29 15:46:39;;;;;;;14.75;9.25;;;16.90;98.60;;;;;;5045955;28;21269;-60
2021/10/29 15:51:56;;;;;;;15.13;10.32;;;16.60;99.70;;;;;;5042005;28;20439;-56
2021/10/29 15:54:22;;;;;;;13.05;9.30;;;16.50;99.90;;;;;;5047147;28;20476;-57
2021/10/29 15:56:52;;;;;;;14.82;8.35;;;16.20;99.90;;;;;;5043050;28;20421;-60
2021/10/29 15:59:36;;;;;;;13.40;9.10;;;16.00;99.90;;;;;;5046343;28;20420;-57
2021/10/29 16:02:18;;;;;;;15.32;8.50;;;15.90;99.90;;;;;;5046894;28;20452;-57
2021/10/29 16:18:25;;;;;;;18.80;13.10;;;15.40;99.90;;;;;;5045533;28;20404;-57
2021/10/29 16:20:51;;;;;;;18.08;11.73;;;15.30;99.90;;;;;;5043117;28;20508;-56
2021/10/29 16:23:17;;;;;;;17.70;11.60;;;15.20;99.90;;;;;;5047765;28;20397;-60
2021/10/29 16:25:53;;;;;;;17.95;11.10;;;15.10;99.90;;;;;;5049730;28;20479;-56
2021/10/29 16:28:24;;;;;;;16.80;10.23;;;14.90;99.90;;;;;;5044080;28;20820;-58
2021/10/29 16:30:50;;;;;;;18.17;10.60;;;14.90;99.90;;;;;;5047820;28;20477;-57
2021/10/29 16:33:35;;;;;;;16.20;10.10;;;14.90;99.90;;;;;;5047384;28;21003;-60
2021/10/29 16:36:02;;;;;;;14.68;9.55;;;14.80;99.90;;;;;;5049691;28;20380;-57
2021/10/29 16:38:29;;;;;;;16.23;10.05;;;14.50;99.90;;;;;;5049056;28;20427;-56
2021/10/29 16:40:55;;;;;;;15.98;8.60;;;14.50;99.90;;;;;;5049000;28;20441;-57
2021/10/29 16:43:22;;;;;;;14.15;9.63;;;14.30;99.90;;;;;;5048693;28;20382;-55
2021/10/29 16:45:49;;;;;;;12.70;8.57;;;14.20;99.90;;;;;;5049504;28;20434;-57
2021/10/29 16:48:17;;;;;;;16.30;9.20;;;14.00;99.90;;;;;;5049037;28;20382;-58
2021/10/29 16:50:44;;;;;;;15.32;8.80;;;13.90;99.90;;;;;;5049133;28;20393;-54
2021/10/29 16:53:10;;;;;;;17.38;9.90;;;13.60;99.90;;;;;;5049433;28;20465;-54
2021/10/29 16:55:38;;;;;;;15.45;9.43;;;13.50;99.90;;;;;;5047190;28;20389;-55
2021/10/29 16:58:04;;;;;;;14.85;9.07;;;13.40;99.90;;;;;;5049479;28;20454;-56
2021/10/29 17:00:31;;;;;;;13.77;8.40;;;13.30;99.90;;;;;;5048338;28;20480;-54
2021/10/29 17:02:57;;;;;;;13.18;8.52;;;13.20;99.90;;;;;;5049286;28;20404;-55
2021/10/29 17:05:22;;;;;;;16.25;8.88;;;13.10;99.90;;;;;;5048199;28;20417;-55
2021/10/29 17:07:48;;;;;;;14.82;9.05;;;13.00;99.90;;;;;;5044853;28;20506;-55
2021/10/29 17:10:17;;;;;;;14.40;8.95;;;12.80;99.90;;;;;;5046491;28;20812;-54
2021/10/29 17:12:43;;;;;;;12.85;7.85;;;12.80;99.90;;;;;;5045156;28;20406;-53
2021/10/29 17:15:11;;;;;;;14.70;8.63;;;12.90;99.90;;;;;;5045031;28;20879;-54
2021/10/29 17:17:38;;;;;;;14.03;8.10;;;12.90;99.90;;;;;;5039778;28;20417;-55
2021/10/29 17:20:06;;;;;;;14.40;8.90;;;12.90;99.90;;;;;;5036567;28;20397;-54
2021/10/29 17:22:32;;;;;;;14.60;8.18;;;12.80;99.90;;;;;;5033677;28;20398;-54
2021/10/29 17:24:58;;;;;;;12.52;7.85;;;12.70;99.90;;;;;;5037798;28;20390;-54
2021/10/29 17:27:23;;;;;;;14.07;7.95;;;12.70;99.90;;;;;;5031719;28;20712;-56
2021/10/29 17:29:49;;;;;;;12.70;8.00;;;12.60;99.90;;;;;;5035031;28;20417;-56
2021/10/29 17:32:15;;;;;;;17.15;8.90;;;12.50;99.90;;;;;;5036390;28;20771;-56
2021/10/29 17:34:44;;;;;;;15.23;9.40;;;12.40;99.90;;;;;;5033768;28;20403;-55
2021/10/29 17:37:10;;;;;;;17.52;10.35;;;12.30;99.90;;;;;;5037233;28;20754;-56
2021/10/29 17:39:37;;;;;;;17.27;10.10;;;12.20;99.90;;;;;;5037126;28;21108;-55
2021/10/29 17:42:03;;;;;;;16.50;10.48;;;12.20;99.90;;;;;;5039137;28;20397;-55
2021/10/29 17:44:31;;;;;;;15.20;9.35;;;12.00;99.90;;;;;;5039334;28;20401;-55